Time;durP1;ratioP1;P1;durP2;ratioP2;P2;SDS_P1;SDS_P2;PMS_P1;PMS_P2;Temp;Humidity;BMP_temperature;BMP_pressure;BME280_temperature;BME280_humidity;BME280_pressure;Samples;Min_cycle;Max_cycle;Signal;HPM_P1;HPM_P2
2022/01/26 00:07:15;;;;;;;93.00;33.20;;;5.40;99.90;;;;;;5093405;28;20238;-61
2022/01/26 00:09:40;;;;;;;101.00;37.47;;;5.30;99.90;;;;;;5094707;28;20188;-60
2022/01/26 00:12:06;;;;;;;91.60;33.40;;;5.40;99.90;;;;;;5093969;28;20181;-60
2022/01/26 00:14:32;;;;;;;95.00;35.83;;;5.40;99.90;;;;;;5084775;28;20268;-60
2022/01/26 00:17:00;;;;;;;100.93;35.90;;;5.40;99.90;;;;;;5123268;27;20672;-60
2022/01/26 00:19:33;;;;;;;98.17;37.67;;;5.40;99.90;;;;;;5092385;28;20200;-60
2022/01/26 00:21:59;;;;;;;110.60;37.43;;;5.30;99.90;;;;;;5124887;27;20192;-60
2022/01/26 00:27:09;;;;;;;102.83;39.70;;;5.30;99.90;;;;;;5090055;28;20275;-60
2022/01/26 00:29:37;;;;;;;98.50;33.87;;;5.20;99.90;;;;;;5094425;28;20172;-60
2022/01/26 00:42:59;;;;;;;102.70;37.53;;;5.00;99.90;;;;;;5094150;28;20671;-60
2022/01/26 00:45:33;;;;;;;92.90;35.43;;;5.00;99.90;;;;;;5092334;28;20188;-60
2022/01/26 00:48:02;;;;;;;100.33;37.73;;;5.00;99.90;;;;;;5092803;28;20237;-60
2022/01/26 00:50:28;;;;;;;97.90;35.60;;;5.20;99.90;;;;;;5093504;28;20189;-60
2022/01/26 00:52:55;;;;;;;87.77;33.30;;;5.20;99.90;;;;;;5092737;28;20277;-60
2022/01/26 00:55:21;;;;;;;93.33;31.03;;;5.20;99.90;;;;;;5091556;28;20200;-61
2022/01/26 00:57:48;;;;;;;87.33;34.27;;;5.10;99.90;;;;;;5092457;28;20192;-60
2022/01/26 01:00:17;;;;;;;99.20;36.50;;;5.00;99.90;;;;;;5092301;28;20645;-60
2022/01/26 01:02:43;;;;;;;96.03;34.00;;;5.10;99.90;;;;;;5126095;27;20188;-60
2022/01/26 01:05:57;;;;;;;96.27;34.20;;;5.00;99.90;;;;;;5093380;28;20185;-62
2022/01/26 01:08:07;;;;;;;99.90;36.77;;;5.10;99.90;;;;;;5095298;28;20193;-69
2022/01/26 01:10:33;;;;;;;111.77;39.43;;;5.10;99.90;;;;;;5093069;28;20187;-61
2022/01/26 01:13:00;;;;;;;86.47;35.60;;;5.10;99.90;;;;;;5093466;28;20616;-60
2022/01/26 01:15:28;;;;;;;90.07;35.70;;;5.00;99.90;;;;;;5093097;28;20657;-60
2022/01/26 01:18:07;;;;;;;109.50;36.73;;;5.00;99.90;;;;;;5092010;28;20187;-63
2022/01/26 01:21:52;;;;;;;82.17;34.87;;;5.10;99.90;;;;;;5092958;28;20172;-61
2022/01/26 01:26:26;;;;;;;93.57;33.90;;;5.00;99.90;;;;;;5093294;28;20303;-60
2022/01/26 01:31:44;;;;;;;88.53;35.17;;;5.10;99.90;;;;;;5076779;28;20214;-60
2022/01/26 01:34:12;;;;;;;118.67;37.47;;;5.20;99.90;;;;;;5089369;28;20212;-60
2022/01/26 01:36:41;;;;;;;99.70;34.80;;;5.10;99.90;;;;;;5077833;28;20341;-60
2022/01/26 01:39:07;;;;;;;101.10;38.97;;;4.90;99.90;;;;;;5093120;28;20271;-60
2022/01/26 01:41:35;;;;;;;112.33;38.50;;;4.90;99.90;;;;;;5124143;27;20184;-61
2022/01/26 01:44:02;;;;;;;101.47;36.47;;;4.90;99.90;;;;;;5093724;28;20535;-61
2022/01/26 01:46:28;;;;;;;99.77;38.17;;;5.00;99.90;;;;;;5091463;28;20204;-60
2022/01/26 01:48:54;;;;;;;100.07;38.70;;;4.80;99.90;;;;;;5092471;28;20185;-60
2022/01/26 01:51:26;;;;;;;90.23;33.00;;;4.90;99.90;;;;;;5091878;28;20188;-60
2022/01/26 01:53:52;;;;;;;92.77;35.27;;;5.00;99.90;;;;;;5093312;28;20291;-60
2022/01/26 01:56:22;;;;;;;106.00;38.57;;;5.10;99.90;;;;;;5091147;28;20284;-61
2022/01/26 01:58:47;;;;;;;101.13;36.17;;;5.00;99.90;;;;;;5099207;28;20193;-61
2022/01/26 02:01:13;;;;;;;107.00;38.40;;;5.00;99.90;;;;;;5088692;28;20182;-60
2022/01/26 02:03:39;;;;;;;99.60;38.13;;;5.20;99.90;;;;;;5087008;28;20196;-60
2022/01/26 02:06:04;;;;;;;89.87;36.60;;;5.30;99.90;;;;;;5091381;28;20193;-60
2022/01/26 02:08:30;;;;;;;100.63;38.27;;;5.20;99.90;;;;;;5091706;28;20212;-60
2022/01/26 02:10:56;;;;;;;102.30;35.83;;;4.90;99.90;;;;;;5073938;28;20250;-63
2022/01/26 02:13:37;;;;;;;96.90;34.63;;;4.70;99.90;;;;;;5086048;28;20212;-60
2022/01/26 02:16:12;;;;;;;77.93;32.93;;;4.80;99.90;;;;;;5092318;28;20195;-60
2022/01/26 02:56:29;;;;;;;100.57;35.70;;;5.40;99.90;;;;;;5092302;28;20207;-60
2022/01/26 03:01:42;;;;;;;108.43;36.10;;;5.30;99.90;;;;;;5123748;28;20189;-60
2022/01/26 03:06:45;;;;;;;97.77;34.73;;;5.20;99.90;;;;;;5090322;28;20196;-61
2022/01/26 03:09:14;;;;;;;107.80;40.60;;;5.20;99.90;;;;;;5091868;28;20192;-59
2022/01/26 03:11:43;;;;;;;97.03;36.00;;;4.90;99.90;;;;;;5091627;28;20546;-59
2022/01/26 03:14:42;;;;;;;104.13;35.40;;;4.90;99.90;;;;;;5091148;28;20274;-60
2022/01/26 03:17:00;;;;;;;111.97;36.80;;;4.90;99.90;;;;;;5071905;28;20620;-60
2022/01/26 03:19:39;;;;;;;107.63;38.17;;;4.80;99.90;;;;;;5084749;28;20557;-60
2022/01/26 03:30:27;;;;;;;97.50;34.03;;;4.80;99.90;;;;;;5095270;28;20707;-64
2022/01/26 03:35:50;;;;;;;101.07;36.03;;;4.80;99.90;;;;;;5077390;28;20227;-60
2022/01/26 03:38:24;;;;;;;100.93;37.17;;;4.90;99.90;;;;;;5123685;27;20188;-60
2022/01/26 03:41:01;;;;;;;105.07;36.20;;;4.90;99.90;;;;;;5092793;28;20177;-60
2022/01/26 03:43:27;;;;;;;97.13;35.17;;;4.80;99.90;;;;;;5094023;28;20223;-60
2022/01/26 03:45:52;;;;;;;90.27;32.97;;;4.70;99.90;;;;;;5126815;27;20212;-60
2022/01/26 03:48:18;;;;;;;92.23;35.70;;;4.80;99.90;;;;;;5127373;27;20585;-61
2022/01/26 03:50:44;;;;;;;103.80;34.30;;;5.10;99.90;;;;;;5095493;28;20188;-59
2022/01/26 03:53:10;;;;;;;93.93;33.67;;;4.90;99.90;;;;;;5110301;28;20208;-60
2022/01/26 03:55:35;;;;;;;91.60;30.97;;;4.60;99.90;;;;;;5128129;27;20267;-63
2022/01/26 03:58:01;;;;;;;86.10;32.17;;;4.60;99.90;;;;;;5089121;28;20193;-60
2022/01/26 04:00:27;;;;;;;71.17;28.13;;;4.70;99.90;;;;;;5077201;28;20617;-60
2022/01/26 04:02:52;;;;;;;74.17;27.60;;;4.70;99.90;;;;;;5127273;27;20207;-60
2022/01/26 04:05:18;;;;;;;82.63;29.00;;;4.80;99.90;;;;;;5094592;28;20195;-60
2022/01/26 04:07:45;;;;;;;78.30;26.97;;;4.70;99.90;;;;;;5094031;28;20227;-61
2022/01/26 04:10:33;;;;;;;73.47;30.87;;;4.80;99.90;;;;;;5084512;28;20551;-59
2022/01/26 04:12:56;;;;;;;88.00;30.83;;;4.80;99.90;;;;;;5119762;27;20224;-60
2022/01/26 04:15:27;;;;;;;73.87;26.40;;;4.80;99.90;;;;;;5094204;28;20188;-60
2022/01/26 04:17:54;;;;;;;80.97;27.33;;;4.80;99.90;;;;;;5077837;28;20186;-60
2022/01/26 04:20:23;;;;;;;86.27;27.80;;;4.60;99.90;;;;;;5124070;27;20185;-60
2022/01/26 04:22:55;;;;;;;77.50;25.97;;;4.50;99.90;;;;;;5093445;28;20188;-60
2022/01/26 04:25:24;;;;;;;83.53;28.30;;;4.40;99.90;;;;;;5094373;28;20365;-60
2022/01/26 04:27:53;;;;;;;73.47;27.13;;;4.50;99.90;;;;;;5093716;28;20648;-60
2022/01/26 04:30:19;;;;;;;77.53;27.50;;;4.50;99.90;;;;;;5093879;28;20208;-61
2022/01/26 04:32:45;;;;;;;84.77;30.20;;;4.60;99.90;;;;;;5093939;28;20258;-60
2022/01/26 04:35:11;;;;;;;89.77;26.90;;;4.70;99.90;;;;;;5094363;28;20680;-59
2022/01/26 04:38:09;;;;;;;71.43;25.77;;;4.60;99.90;;;;;;5093155;28;20645;-60
2022/01/26 04:40:37;;;;;;;72.93;26.07;;;4.50;99.90;;;;;;5079142;28;20200;-60
2022/01/26 04:43:09;;;;;;;78.50;27.87;;;4.40;99.90;;;;;;5125216;27;20227;-60
2022/01/26 04:45:34;;;;;;;90.17;30.40;;;4.40;99.90;;;;;;5091976;28;20191;-60
2022/01/26 04:48:00;;;;;;;80.30;30.33;;;4.50;99.90;;;;;;5125787;27;20196;-60
2022/01/26 04:50:26;;;;;;;78.27;27.83;;;4.40;99.90;;;;;;5109201;28;20191;-60
2022/01/26 04:52:51;;;;;;;82.03;28.13;;;4.30;99.90;;;;;;5126676;27;20219;-60
2022/01/26 04:55:17;;;;;;;84.47;28.33;;;4.40;99.90;;;;;;5092989;28;20199;-60
2022/01/26 04:57:43;;;;;;;82.00;30.27;;;4.50;99.90;;;;;;5093679;28;20192;-60
2022/01/26 05:00:09;;;;;;;79.27;27.47;;;4.50;99.90;;;;;;5093191;28;20770;-60
2022/01/26 05:02:35;;;;;;;78.43;29.30;;;4.60;99.90;;;;;;5092004;28;20250;-61
2022/01/26 05:05:01;;;;;;;77.43;28.93;;;4.50;99.90;;;;;;5126119;27;20197;-60
2022/01/26 05:07:27;;;;;;;82.13;30.87;;;4.60;99.90;;;;;;5089296;28;20595;-60
2022/01/26 05:09:53;;;;;;;92.07;32.20;;;4.50;99.90;;;;;;5078441;28;20185;-60
2022/01/26 05:12:19;;;;;;;93.17;28.87;;;4.40;99.90;;;;;;5085346;28;20201;-59
2022/01/26 05:14:46;;;;;;;71.13;28.73;;;4.40;99.90;;;;;;5079726;28;20227;-60
2022/01/26 05:17:13;;;;;;;75.20;29.60;;;4.40;99.90;;;;;;5093496;28;20184;-60
2022/01/26 05:19:39;;;;;;;75.20;29.03;;;4.40;99.90;;;;;;5093311;28;20660;-60
2022/01/26 05:22:05;;;;;;;84.30;28.53;;;4.50;99.90;;;;;;5093192;28;20185;-60
2022/01/26 05:24:31;;;;;;;88.73;31.70;;;4.50;99.90;;;;;;5092922;28;20195;-63
2022/01/26 05:26:57;;;;;;;84.70;28.30;;;4.40;99.90;;;;;;5125893;27;20192;-60
2022/01/26 05:29:23;;;;;;;77.23;31.33;;;4.40;99.90;;;;;;5107890;28;20208;-60
2022/01/26 05:31:49;;;;;;;93.10;33.33;;;4.40;99.90;;;;;;5089571;28;20633;-60
2022/01/26 05:34:15;;;;;;;91.47;30.67;;;4.30;99.90;;;;;;5082274;28;20208;-59
2022/01/26 05:36:40;;;;;;;82.63;31.70;;;4.40;99.90;;;;;;5108452;28;20193;-59
2022/01/26 05:39:06;;;;;;;92.00;32.97;;;4.40;99.90;;;;;;5125357;27;20190;-59
2022/01/26 05:41:32;;;;;;;92.43;34.03;;;4.30;99.90;;;;;;5082845;28;20626;-60
2022/01/26 05:43:59;;;;;;;87.63;30.80;;;4.30;99.90;;;;;;5072774;28;20212;-60
2022/01/26 05:47:09;;;;;;;89.23;30.60;;;4.40;99.90;;;;;;5124646;27;20235;-60
2022/01/26 05:49:16;;;;;;;93.87;34.83;;;4.40;99.90;;;;;;5099791;28;20660;-60
2022/01/26 05:51:45;;;;;;;89.03;35.33;;;4.40;99.90;;;;;;5092171;28;20188;-62
2022/01/26 05:54:11;;;;;;;103.47;35.20;;;4.50;99.90;;;;;;5124599;27;20334;-65
2022/01/26 05:56:37;;;;;;;92.87;32.37;;;4.60;99.90;;;;;;5093192;28;20201;-59
2022/01/26 05:59:03;;;;;;;89.17;31.80;;;4.50;99.90;;;;;;5091792;28;20294;-60
2022/01/26 06:01:29;;;;;;;91.13;34.33;;;4.30;99.90;;;;;;5092330;28;20195;-60
2022/01/26 06:03:54;;;;;;;92.67;31.40;;;4.30;99.90;;;;;;5091932;28;20599;-60
2022/01/26 06:06:20;;;;;;;88.33;31.27;;;4.20;99.90;;;;;;5125170;27;20202;-59
2022/01/26 06:08:46;;;;;;;82.57;30.87;;;4.30;99.90;;;;;;5093414;28;20552;-60
2022/01/26 06:11:11;;;;;;;97.17;31.70;;;4.20;99.90;;;;;;5107078;28;20189;-60
2022/01/26 06:13:37;;;;;;;77.70;31.17;;;4.20;99.90;;;;;;5090462;28;20261;-60
2022/01/26 06:16:03;;;;;;;83.03;30.87;;;4.40;99.90;;;;;;5125519;28;20538;-60
2022/01/26 06:18:29;;;;;;;93.83;33.27;;;4.50;99.90;;;;;;5092232;28;20233;-60
2022/01/26 06:20:55;;;;;;;89.17;33.63;;;4.60;99.90;;;;;;5090723;28;20192;-59
2022/01/26 06:23:24;;;;;;;92.40;34.20;;;4.50;99.90;;;;;;5107434;28;20676;-63
2022/01/26 06:25:52;;;;;;;87.53;31.13;;;4.70;99.90;;;;;;5092109;28;20184;-59
2022/01/26 06:28:17;;;;;;;89.20;31.47;;;4.60;99.90;;;;;;5081575;28;20192;-59
2022/01/26 06:30:47;;;;;;;76.83;28.60;;;4.60;99.90;;;;;;5107699;28;20185;-59
2022/01/26 06:33:13;;;;;;;94.80;31.37;;;4.40;99.90;;;;;;5091210;28;20212;-60
2022/01/26 06:35:40;;;;;;;86.83;29.47;;;4.30;99.90;;;;;;5091868;28;20193;-59
2022/01/26 06:38:06;;;;;;;83.50;30.27;;;4.40;99.90;;;;;;5085866;28;20246;-60
2022/01/26 06:40:31;;;;;;;95.23;31.10;;;4.40;99.90;;;;;;5097051;28;20720;-60
2022/01/26 06:43:05;;;;;;;98.30;29.33;;;4.40;99.90;;;;;;5087740;28;20197;-59
2022/01/26 06:45:34;;;;;;;81.97;32.37;;;4.30;99.90;;;;;;5072453;28;20181;-60
2022/01/26 06:50:38;;;;;;;82.90;28.70;;;4.30;99.90;;;;;;5091880;28;20173;-60
2022/01/26 06:53:03;;;;;;;88.60;32.87;;;4.40;99.90;;;;;;5091961;28;20572;-59
2022/01/26 06:55:29;;;;;;;92.37;33.40;;;4.60;99.90;;;;;;5092808;28;20258;-59
2022/01/26 06:57:55;;;;;;;93.47;32.00;;;4.60;99.90;;;;;;5096414;28;20197;-60
2022/01/26 07:00:21;;;;;;;98.63;33.90;;;4.70;99.90;;;;;;5111340;28;20196;-64
2022/01/26 07:02:47;;;;;;;92.47;33.40;;;4.60;99.90;;;;;;5095159;28;20188;-60
2022/01/26 07:05:13;;;;;;;89.00;31.77;;;4.40;99.90;;;;;;5093605;28;20283;-62
2022/01/26 07:07:40;;;;;;;89.53;32.03;;;4.40;99.90;;;;;;5092584;28;20195;-59
2022/01/26 07:10:08;;;;;;;101.67;33.00;;;4.30;99.90;;;;;;5078471;28;20185;-60
2022/01/26 07:12:33;;;;;;;84.27;31.10;;;4.40;99.90;;;;;;5101205;28;20192;-60
2022/01/26 07:21:21;;;;;;;87.97;32.23;;;4.30;99.90;;;;;;5088002;28;20250;-60
2022/01/26 07:23:22;;;;;;;73.03;28.23;;;4.30;99.90;;;;;;5087906;28;20273;-60
2022/01/26 07:25:48;;;;;;;90.23;33.10;;;4.50;99.90;;;;;;5087058;28;20217;-60
2022/01/26 07:28:14;;;;;;;97.13;33.67;;;4.50;99.90;;;;;;5095545;28;20177;-60
2022/01/26 07:30:40;;;;;;;86.77;32.57;;;4.40;99.90;;;;;;5096037;28;20590;-59
2022/01/26 07:33:06;;;;;;;94.83;35.30;;;4.40;99.90;;;;;;5110342;28;20207;-60
2022/01/26 07:35:32;;;;;;;82.53;32.43;;;4.40;99.90;;;;;;5090708;28;20235;-60
2022/01/26 07:38:01;;;;;;;94.60;32.70;;;4.50;99.90;;;;;;5092166;28;20177;-59
2022/01/26 07:40:27;;;;;;;98.43;33.87;;;4.60;99.90;;;;;;5093406;28;20189;-61
2022/01/26 07:42:53;;;;;;;89.47;31.13;;;4.60;99.90;;;;;;5095069;28;20279;-61
2022/01/26 07:45:19;;;;;;;91.10;31.27;;;4.60;99.90;;;;;;5095025;28;20267;-64
2022/01/26 07:47:46;;;;;;;74.77;28.73;;;4.50;99.90;;;;;;5084167;28;20213;-64
2022/01/26 07:50:14;;;;;;;84.63;30.13;;;4.50;99.90;;;;;;5080074;28;20298;-65
2022/01/26 07:52:42;;;;;;;84.93;31.73;;;4.50;99.90;;;;;;5095125;28;20226;-64
2022/01/26 07:55:10;;;;;;;90.70;31.73;;;4.50;99.90;;;;;;5095087;28;20518;-64
2022/01/26 07:57:36;;;;;;;82.43;28.30;;;4.50;99.90;;;;;;5122566;27;20292;-64
2022/01/26 08:00:05;;;;;;;93.63;33.37;;;4.60;99.90;;;;;;5092830;28;20267;-65
2022/01/26 08:02:30;;;;;;;77.73;30.47;;;4.70;99.90;;;;;;5079014;28;20196;-63
2022/01/26 08:04:57;;;;;;;84.97;32.73;;;4.70;99.90;;;;;;5076481;28;20265;-65
2022/01/26 08:07:23;;;;;;;84.33;30.00;;;4.70;99.90;;;;;;5092164;28;20279;-63
2022/01/26 08:09:49;;;;;;;80.70;31.37;;;4.70;99.90;;;;;;5080556;28;20272;-70
2022/01/26 08:12:15;;;;;;;79.87;31.63;;;4.80;99.90;;;;;;5084133;28;20270;-65
2022/01/26 08:14:42;;;;;;;84.07;32.03;;;4.70;99.90;;;;;;5082497;28;20213;-65
2022/01/26 08:17:09;;;;;;;81.43;32.60;;;4.70;99.90;;;;;;5079851;28;20189;-65
2022/01/26 08:19:35;;;;;;;83.77;32.97;;;4.60;99.90;;;;;;5092757;28;20199;-63
2022/01/26 08:22:02;;;;;;;81.60;31.10;;;4.70;99.90;;;;;;5086815;28;20192;-64
2022/01/26 08:24:31;;;;;;;87.70;34.57;;;4.80;99.90;;;;;;5119028;27;20184;-64
2022/01/26 08:27:04;;;;;;;89.73;31.40;;;4.70;99.90;;;;;;5088323;28;20181;-63
2022/01/26 08:29:37;;;;;;;87.67;30.30;;;4.80;99.90;;;;;;5075843;28;20190;-63
2022/01/26 08:32:04;;;;;;;84.57;33.60;;;4.70;99.90;;;;;;5093082;28;20176;-63
2022/01/26 08:34:29;;;;;;;95.90;34.23;;;4.70;99.90;;;;;;5080241;28;20205;-64
2022/01/26 08:36:55;;;;;;;82.13;30.50;;;4.80;99.90;;;;;;5082866;28;20203;-65
2022/01/26 08:39:21;;;;;;;70.57;29.63;;;4.80;99.90;;;;;;5081750;28;20547;-65
2022/01/26 08:41:47;;;;;;;75.83;29.73;;;4.80;99.90;;;;;;5081710;28;20635;-65
2022/01/26 08:44:13;;;;;;;89.97;33.17;;;4.70;99.90;;;;;;5076705;28;20556;-65
2022/01/26 08:46:39;;;;;;;75.33;30.43;;;4.80;99.90;;;;;;5074821;28;20185;-64
2022/01/26 08:49:05;;;;;;;85.73;28.93;;;4.90;99.90;;;;;;5075852;28;20268;-64
2022/01/26 08:51:31;;;;;;;79.30;30.50;;;4.80;99.90;;;;;;5084828;28;20190;-65
2022/01/26 08:53:57;;;;;;;83.73;31.77;;;4.80;99.90;;;;;;5122162;27;20208;-63
2022/01/26 08:56:23;;;;;;;84.17;31.23;;;4.80;99.90;;;;;;5090386;28;20202;-64
2022/01/26 08:58:48;;;;;;;71.37;30.53;;;4.90;99.90;;;;;;5094541;28;20185;-64
2022/01/26 09:01:14;;;;;;;78.50;29.87;;;5.00;99.90;;;;;;5110922;27;20666;-64
2022/01/26 09:03:40;;;;;;;85.37;30.30;;;4.90;99.90;;;;;;5077284;28;20193;-63
2022/01/26 09:06:09;;;;;;;80.87;31.40;;;4.80;99.90;;;;;;5082841;28;20204;-67
2022/01/26 09:08:38;;;;;;;72.57;30.17;;;5.00;99.90;;;;;;5077551;28;20186;-64
2022/01/26 09:11:04;;;;;;;72.63;31.93;;;5.00;99.90;;;;;;5087347;28;20321;-62
2022/01/26 09:13:31;;;;;;;79.43;31.37;;;5.20;99.90;;;;;;5090505;28;20299;-64
2022/01/26 09:15:58;;;;;;;81.20;32.53;;;5.20;99.90;;;;;;5103186;28;20196;-62
2022/01/26 09:21:21;;;;;;;93.33;34.27;;;5.20;99.90;;;;;;5103005;27;20669;-62
2022/01/26 09:23:47;;;;;;;79.80;31.00;;;5.10;99.90;;;;;;5125193;27;20208;-63
2022/01/26 09:26:14;;;;;;;69.97;30.77;;;5.20;99.90;;;;;;5081239;28;20188;-63
2022/01/26 09:28:40;;;;;;;81.73;32.03;;;5.20;99.90;;;;;;5073723;28;20602;-63
2022/01/26 09:31:06;;;;;;;73.13;28.20;;;5.00;99.90;;;;;;5072879;28;20275;-63
2022/01/26 09:33:32;;;;;;;75.60;30.87;;;5.20;99.90;;;;;;5084000;28;20673;-63
2022/01/26 09:35:57;;;;;;;76.20;30.00;;;5.20;99.90;;;;;;5078666;28;20235;-72
2022/01/26 09:38:23;;;;;;;70.70;32.03;;;5.10;99.90;;;;;;5087728;28;20200;-64
2022/01/26 09:40:50;;;;;;;83.90;31.43;;;5.10;99.90;;;;;;5089474;28;20193;-64
2022/01/26 09:43:17;;;;;;;84.20;33.50;;;5.20;99.90;;;;;;5076527;28;20192;-65
2022/01/26 09:45:44;;;;;;;79.70;30.03;;;5.20;99.90;;;;;;5117247;27;20189;-64
2022/01/26 09:48:11;;;;;;;74.90;29.23;;;5.30;99.90;;;;;;5088188;28;20188;-64
2022/01/26 09:50:38;;;;;;;71.70;28.23;;;5.20;99.90;;;;;;5118751;27;20184;-64
2022/01/26 09:53:04;;;;;;;77.07;30.90;;;5.30;99.90;;;;;;5085476;28;20553;-63
2022/01/26 09:55:30;;;;;;;71.20;32.30;;;5.30;99.90;;;;;;5090439;28;20191;-65
2022/01/26 09:57:58;;;;;;;74.53;28.03;;;5.30;99.90;;;;;;5100610;28;20247;-63
2022/01/26 10:00:28;;;;;;;75.87;31.40;;;5.30;99.90;;;;;;5075880;28;20185;-69
2022/01/26 10:03:02;;;;;;;75.43;31.57;;;5.20;99.90;;;;;;5090776;28;20188;-65
2022/01/26 10:05:38;;;;;;;71.67;29.00;;;5.30;99.90;;;;;;5090158;28;20187;-71
2022/01/26 10:08:40;;;;;;;77.07;30.17;;;5.30;99.90;;;;;;5079256;28;20352;-65
2022/01/26 10:19:09;;;;;;;68.73;30.77;;;5.50;99.90;;;;;;5073749;28;20230;-64
2022/01/26 10:21:46;;;;;;;75.77;31.33;;;5.40;99.90;;;;;;5078242;28;20598;-65
2022/01/26 10:24:12;;;;;;;78.63;31.50;;;5.50;99.90;;;;;;5085490;28;20195;-67
2022/01/26 10:26:38;;;;;;;71.70;31.17;;;5.60;99.90;;;;;;5088000;28;20533;-65
2022/01/26 10:29:04;;;;;;;72.10;29.13;;;5.60;99.90;;;;;;5091450;28;20245;-65
2022/01/26 10:31:39;;;;;;;64.47;26.00;;;5.50;99.90;;;;;;5079545;28;20188;-67
2022/01/26 10:34:17;;;;;;;64.47;25.20;;;5.40;99.90;;;;;;5095009;28;20210;-64
2022/01/26 10:36:50;;;;;;;62.20;27.17;;;5.50;99.90;;;;;;5095779;28;20188;-64
2022/01/26 10:39:43;;;;;;;53.53;26.83;;;5.30;99.90;;;;;;5095239;28;20191;-65
2022/01/26 10:42:12;;;;;;;65.33;27.03;;;5.30;99.90;;;;;;5095725;28;20200;-65
2022/01/26 10:44:47;;;;;;;63.30;28.80;;;5.40;99.90;;;;;;5096056;28;20657;-65
2022/01/26 10:47:15;;;;;;;60.07;27.90;;;5.60;99.90;;;;;;5094167;28;20184;-64
2022/01/26 10:54:58;;;;;;;76.47;28.57;;;5.50;99.90;;;;;;5095512;28;20252;-75
2022/01/26 10:57:25;;;;;;;67.27;30.30;;;5.40;99.90;;;;;;5128151;27;20288;-74
2022/01/26 10:59:51;;;;;;;67.60;25.60;;;5.50;99.90;;;;;;5096170;28;20169;-76
2022/01/26 11:02:23;;;;;;;63.83;27.63;;;5.30;99.90;;;;;;5090648;28;20281;-75
2022/01/26 11:04:49;;;;;;;70.37;28.87;;;5.30;99.90;;;;;;5105742;28;20214;-75
2022/01/26 11:07:16;;;;;;;52.17;26.37;;;5.40;99.90;;;;;;5093821;28;20192;-72
2022/01/26 11:09:45;;;;;;;64.43;25.73;;;5.40;99.90;;;;;;5125027;27;20285;-77
2022/01/26 11:12:13;;;;;;;68.03;24.67;;;5.60;99.90;;;;;;5111998;27;20204;-77
2022/01/26 11:14:45;;;;;;;73.27;25.67;;;5.50;99.90;;;;;;5107231;27;20204;-76
2022/01/26 11:17:23;;;;;;;55.27;24.47;;;5.60;99.90;;;;;;5109672;27;20289;-69
2022/01/26 11:19:49;;;;;;;72.00;29.73;;;5.60;99.90;;;;;;5094071;28;20193;-74
2022/01/26 11:22:15;;;;;;;59.90;26.77;;;5.60;99.90;;;;;;5110254;27;20191;-70
2022/01/26 11:24:48;;;;;;;65.13;26.87;;;5.80;99.90;;;;;;5111121;28;20196;-73
2022/01/26 11:27:18;;;;;;;61.90;27.33;;;5.80;99.90;;;;;;5093961;28;20196;-73
2022/01/26 11:29:48;;;;;;;67.50;28.37;;;5.70;99.90;;;;;;5128491;27;20177;-74
2022/01/26 11:32:30;;;;;;;62.00;27.83;;;5.70;99.90;;;;;;5094141;28;20192;-70
2022/01/26 11:34:56;;;;;;;73.40;26.93;;;5.60;99.90;;;;;;5094802;28;20200;-72
2022/01/26 11:37:34;;;;;;;75.23;29.00;;;5.70;99.90;;;;;;5104226;28;20222;-65
2022/01/26 11:45:35;;;;;;;71.63;28.63;;;6.10;99.90;;;;;;5091288;28;20248;-65
2022/01/26 11:48:11;;;;;;;69.03;28.70;;;6.00;99.90;;;;;;5094798;28;20188;-66
2022/01/26 11:50:42;;;;;;;75.50;28.63;;;5.80;99.90;;;;;;5089117;28;20173;-66
2022/01/26 11:53:16;;;;;;;70.27;29.00;;;5.70;99.90;;;;;;5094069;28;20208;-66
2022/01/26 11:55:48;;;;;;;73.70;30.10;;;5.80;99.90;;;;;;5113887;27;20268;-66
2022/01/26 11:58:42;;;;;;;71.53;31.20;;;5.70;99.90;;;;;;5094102;28;20184;-66
2022/01/26 12:01:22;;;;;;;70.80;29.50;;;5.70;99.90;;;;;;5087836;28;20212;-65
2022/01/26 12:04:04;;;;;;;77.47;28.63;;;5.70;99.90;;;;;;5094401;28;20210;-66
2022/01/26 12:06:38;;;;;;;79.27;30.37;;;6.00;99.90;;;;;;5087644;28;20259;-65
2022/01/26 12:09:07;;;;;;;80.03;32.07;;;5.90;99.90;;;;;;5091809;28;20188;-66
2022/01/26 12:11:32;;;;;;;70.57;28.07;;;5.80;99.90;;;;;;5109410;28;20220;-66
2022/01/26 12:14:00;;;;;;;74.23;30.70;;;5.60;99.90;;;;;;5093199;28;20300;-66
2022/01/26 12:16:40;;;;;;;68.63;30.43;;;5.50;99.90;;;;;;5087208;28;20204;-66
2022/01/26 12:38:31;;;;;;;62.77;29.80;;;5.80;99.90;;;;;;5082914;28;20191;-66
2022/01/26 12:43:50;;;;;;;77.57;28.87;;;5.90;99.90;;;;;;5090387;28;20330;-66
2022/01/26 12:46:28;;;;;;;87.60;33.53;;;6.00;99.90;;;;;;5091338;28;20656;-68
2022/01/26 12:49:01;;;;;;;76.87;31.23;;;6.10;99.90;;;;;;5087508;28;20181;-66
2022/01/26 12:51:28;;;;;;;77.30;31.57;;;6.00;99.90;;;;;;5082713;28;20251;-70
2022/01/26 12:53:59;;;;;;;74.80;31.90;;;5.80;99.90;;;;;;5091354;28;20220;-66
2022/01/26 12:56:30;;;;;;;74.43;31.10;;;5.80;99.90;;;;;;5092814;28;20675;-67
2022/01/26 12:59:08;;;;;;;81.80;31.43;;;5.70;99.90;;;;;;5093497;28;20712;-66
2022/01/26 13:01:35;;;;;;;70.10;27.07;;;5.70;99.90;;;;;;5093285;28;20184;-67
2022/01/26 13:04:06;;;;;;;79.03;30.90;;;5.50;99.90;;;;;;5091455;28;20181;-67
2022/01/26 13:06:38;;;;;;;87.40;30.77;;;5.60;99.90;;;;;;5090362;28;20645;-69
2022/01/26 13:09:27;;;;;;;71.10;26.60;;;5.60;99.90;;;;;;5090580;28;20185;-67
2022/01/26 13:11:57;;;;;;;77.10;29.67;;;5.50;99.90;;;;;;5090455;28;20184;-67
2022/01/26 13:14:26;;;;;;;74.33;27.53;;;5.60;99.90;;;;;;5091986;28;20216;-67
2022/01/26 13:17:41;;;;;;;66.80;29.30;;;5.70;99.90;;;;;;5092321;28;20199;-67
2022/01/26 13:22:42;;;;;;;73.00;27.93;;;5.80;99.90;;;;;;5092686;28;20193;-66
2022/01/26 13:41:33;;;;;;;72.20;28.70;;;5.70;99.90;;;;;;5080898;28;20188;-66
2022/01/26 13:54:43;;;;;;;69.97;28.37;;;5.50;99.90;;;;;;5091922;28;20216;-71
2022/01/26 13:57:08;;;;;;;67.70;28.10;;;5.50;99.90;;;;;;5091669;28;20201;-68
2022/01/26 13:59:44;;;;;;;65.73;28.93;;;5.50;99.90;;;;;;5091083;28;20184;-68
2022/01/26 14:02:11;;;;;;;78.60;28.67;;;5.40;99.90;;;;;;5092662;28;20204;-67
2022/01/26 14:04:37;;;;;;;77.87;28.63;;;5.40;99.90;;;;;;5124676;27;20237;-67
2022/01/26 14:07:02;;;;;;;71.43;28.37;;;5.40;99.90;;;;;;5093810;28;20586;-66
2022/01/26 14:09:28;;;;;;;84.80;30.60;;;5.40;99.90;;;;;;5107035;28;20184;-67
2022/01/26 14:11:54;;;;;;;73.13;26.87;;;5.30;99.90;;;;;;5125743;27;20200;-67
2022/01/26 14:14:30;;;;;;;66.87;24.53;;;5.40;99.90;;;;;;5073844;28;20588;-67
2022/01/26 14:16:59;;;;;;;84.37;28.27;;;5.40;99.90;;;;;;5091752;28;20247;-67
2022/01/26 14:19:55;;;;;;;71.00;26.37;;;5.20;99.90;;;;;;5123555;28;20180;-68
2022/01/26 14:25:28;;;;;;;70.70;26.33;;;5.20;99.90;;;;;;5098188;28;20676;-67
2022/01/26 14:27:58;;;;;;;77.63;28.43;;;5.30;99.90;;;;;;5060568;28;20629;-67
2022/01/26 15:32:52;;;;;;;65.63;24.87;;;5.30;99.90;;;;;;5093260;28;20556;-67
2022/01/26 15:40:44;;;;;;;64.13;25.93;;;5.50;99.90;;;;;;5096198;28;20179;-67
2022/01/26 15:51:10;;;;;;;62.30;25.13;;;5.40;99.90;;;;;;5088402;28;20212;-67
2022/01/26 16:37:43;;;;;;;55.83;23.80;;;5.10;99.90;;;;;;5121040;27;20676;-67
2022/01/26 18:17:30;;;;;;;58.80;26.10;;;5.60;99.90;;;;;;5091451;28;20185;-66
2022/01/26 18:49:32;;;;;;;59.47;26.07;;;5.50;99.90;;;;;;5091852;28;20349;-66
2022/01/26 18:51:59;;;;;;;60.80;27.40;;;5.70;99.90;;;;;;5095855;28;20201;-68
2022/01/26 18:54:27;;;;;;;56.33;25.17;;;5.70;99.90;;;;;;5111147;28;20204;-66
2022/01/26 18:56:55;;;;;;;51.93;24.60;;;5.60;99.90;;;;;;5089268;28;20182;-65
2022/01/26 18:59:22;;;;;;;58.93;25.93;;;5.70;99.90;;;;;;5087558;28;20184;-66
2022/01/26 19:01:49;;;;;;;62.00;25.23;;;5.70;99.90;;;;;;5092028;28;20177;-66
2022/01/26 19:04:17;;;;;;;61.07;26.37;;;5.60;99.90;;;;;;5078868;28;20187;-66
2022/01/26 19:06:49;;;;;;;54.20;25.80;;;5.60;99.90;;;;;;5095997;28;20215;-66
2022/01/26 19:09:20;;;;;;;52.80;26.27;;;5.70;99.90;;;;;;5095519;28;20189;-66
2022/01/26 19:11:46;;;;;;;53.83;23.97;;;5.70;99.90;;;;;;5095550;28;20187;-66
2022/01/26 19:14:11;;;;;;;55.47;23.17;;;5.60;99.90;;;;;;5094669;28;20282;-66
2022/01/26 19:16:44;;;;;;;49.30;23.20;;;5.60;99.90;;;;;;5084775;28;20189;-66
2022/01/26 19:21:55;;;;;;;48.47;22.33;;;5.60;99.90;;;;;;5126728;27;20222;-66
2022/01/26 19:26:54;;;;;;;51.80;23.33;;;5.60;99.90;;;;;;5082087;28;20555;-66
2022/01/26 19:40:38;;;;;;;49.53;21.77;;;5.50;99.90;;;;;;5091635;28;20223;-66
2022/01/26 19:50:47;;;;;;;42.17;22.50;;;5.70;99.90;;;;;;5067495;28;20217;-66
2022/01/26 19:53:12;;;;;;;49.60;21.40;;;5.40;99.90;;;;;;5092487;28;20212;-65
2022/01/26 19:55:38;;;;;;;41.53;20.00;;;5.40;99.90;;;;;;5127972;27;20605;-66
2022/01/26 19:58:07;;;;;;;40.67;18.90;;;5.60;99.90;;;;;;5093800;28;20201;-66
2022/01/26 20:00:43;;;;;;;49.83;23.70;;;5.60;99.90;;;;;;5095084;28;20185;-66